Welcome to our Virtual Airline
Sign-in:

Flight MFC36841

  • Submitted By: Thomas Menzel
  • Departure Airport: Port Lions (ORI)
  • Arrival Airport: Port Williams SPB (KPR)
  • Aircraft: BARON B58 (N58BMM)
  • Flight Time: 00.32.55
  • Date Submitted: 19/05/21
  • Route: NO STOPS
  • Status: Accepted
Flight Details
Gross Revenue:
(3 load / $ 61.00 per unit
$ 183.00
Fuel Cost:
(41.2769 fuel used @ 5.1 / unit)
$ 210.51

Additional Log Information:

View Log

FS[15:18] ----- Flight Opened -----
FS[15:18] Cigar Box - 1.1.4.0
FS[15:18] FS: Prepar3D V4
FS[15:18] FSUIPC: v5.14
FS[15:18] Flight Number: MFC36841
FS[15:18] FS Aircraft: Soloy MK2 USCG Float
FS[15:18] FS Model: C206
FS[15:18] FS Type: Cessna
FS[15:18] Departure: ORI
FS[15:18] Arrival: KPR
FS[15:18] Flight Level: 3500
FS[15:18] Flight Type: H
FS[15:18] Passengers: 3
FS[15:18] FOB: 256 lbs
FS[15:18] Gate: n/a
FS[15:18] NOTE: Parking Brake Ignored
FS[15:18] Crash Detection: Disabled
FS[15:18] Engines: 1 Turboprop
FS[15:18] NOTE: Boarding has started
FS[15:18] Parking Brake: Engaged
FS[15:18] Engine 1: Started
FS[15:18] Light Data: Navigation ON
FS[15:18] Light Data: Beacon ON
FS[15:18] Light Data: Taxi lights ON
FS[15:18] Light Data: Strobe lights ON
FS[15:18] Main Door Closed
FS[15:18] COM1: 119.80
FS[15:18] COM2: 127.80
FS[15:18] Transponder: 1200
FS[15:18] NAV1: 113.70
FS[15:18] NAV2: 110.60
FS[15:18] ADF1: 284.0
FS[15:18] ADF2: 240.0
FS[15:18] Navigation Mode: GPS
FS[15:18] Navigation Mode: GPS
FS[15:19] NOTE: Pushing back
FS[15:19] Parking Brake: Released
FS[15:19] NOTE: Taxi started
FS[15:20] Parking Brake: Engaged
FS[15:20] Light Data: Landing lights ON
FS[15:20] Light Data: Taxi lights OFF
FS[15:20] Parking Brake: Released
FS[15:20] NOTE: ----- TAKE OFF -----
FS[15:20] GS: 79 knots
FS[15:20] TAS: 75 knots
FS[15:20] IAS: 76 knots
FS[15:20] VS: 13 fpm
FS[15:20] FOB: 252 lbs
FS[15:20] Heading: 45°
FS[15:20] Pitch: 4°
FS[15:20] Bank: 0°
FS[15:20] Aircraft Weight: 3531.33 lbs
FS[15:20] Nearest Airport: ORI
FS[15:20] Distance: 0.02 miles
FS[15:20] Runway: 6 - ORI
FS[15:20] Ground Surface: Gravel
FS[15:20] Ground Condition: Normal
FS[15:20] NOTE: Weather Report
FS[15:20] Wind Heading: 204°
FS[15:20] Wind Speed: 7 knots
FS[15:20] OAT: 4° C
FS[15:20] TAT: 5° C
FS[15:20] Precipitation: None
FS[15:20] Dew Point: -1° C
FS[15:20] Visibility: 24 miles
FS[15:20] METAR: No METAR available for ORI.
FS[15:20] NOTE: Climb started
FS[15:21] Landing Gear: Retracted
FS[15:21] GS: 85 knots
FS[15:21] TAS: 81 knots
FS[15:21] IAS: 82 knots
FS[15:21] VS: 619 fpm
FS[15:21] AGL: 29 ft
FS[15:21] AMSL: 78 ft
FS[15:21] Autopilot: Engaged
FS[15:21] AGL: 69 ft
FS[15:21] AMSL: 118 ft
FS[15:21] View Mode: Virtual Cockpit
FS[15:26] Light Data: Landing lights OFF
FS[15:26] AGL: 1417 ft
FS[15:26] AMSL: 1502 ft
FS[15:38] Recovery: Flight Saved
FS[15:45] Light Data: Landing lights ON
FS[15:45] AGL: 800 ft
FS[15:45] AMSL: 800 ft
FS[15:47] Flaps: Position 1
FS[15:47] GS: 106 knots
FS[15:47] TAS: 103 knots
FS[15:47] IAS: 104 knots
FS[15:47] VS: -1085 fpm
FS[15:48] Autopilot: Disengaged
FS[15:48] AGL: 335 ft
FS[15:48] AMSL: 482 ft
FS[15:48] Flaps: Position 2
FS[15:48] GS: 66 knots
FS[15:48] TAS: 75 knots
FS[15:48] IAS: 75 knots
FS[15:48] VS: -1640 fpm
FS[15:49] NOTE: ----- LANDED -----
FS[15:49] Landing Rate: -172.24 fpm
FS[15:49] GS: 58 knots
FS[15:49] TAS: 63 knots
FS[15:49] IAS: 64 knots
FS[15:49] VS: -170 fpm
FS[15:49] FOB: 167 lbs
FS[15:49] Heading: 229°
FS[15:49] Pitch: 4°
FS[15:49] Bank: 1°
FS[15:49] Aircraft Weight: 3446.55 lbs
FS[15:49] Nearest Airport: KPR
FS[15:49] Distance: 0.37 miles
FS[15:49] Runway: ???
FS[15:49] Ground Surface: Water
FS[15:49] Ground Condition: Normal
FS[15:49] NOTE: Weather Report
FS[15:49] Wind Heading: 217°
FS[15:49] Wind Speed: 5 knots
FS[15:49] OAT: 3° C
FS[15:49] TAT: 4° C
FS[15:49] Precipitation: None
FS[15:49] Dew Point: -1° C
FS[15:49] Visibility: 23 miles
FS[15:49] METAR: KPRB 211253Z AUTO 17004KT 10SM BKN060 09/08 A2995 RMK AO2 SLP139 T00890078KPRC 211253Z 11004KT 10SM CLR 06/M01 A2986 RMK AO2 SLP082 T00611006KPRG 211255Z AUTO 09011KT 10SM OVC080 10/07 A3005 RMK AO2 T01020074KPRN 211256Z AUTO 15003KT M1/4SM FG VV001 23/21 A2995 RMK AO2 SLP135 T02280206KPRO 211255Z AUTO 10019G26KT 10SM OVC009 09/08 A2990 RMK AO2 T00850082KPRS 211255Z AUTO 28016G22KT 10SM CLR 17/M03 A2987 RMK AO2 T01731032KPRX 211256Z AUTO 15014KT 10SM FEW090 24/21 A2964 RMK AO2 LTG DSNT NW SLP043 T02390206
FS[15:49] View Mode: Spot Plane
FS[15:49] NOTE: Taxi started
FS[15:49] Flaps: Position 0
FS[15:51] Reverse Thrust Started: 15 knots
FS[15:51] Reverse Thrust Stopped: 0 knots
FS[15:51] Gate: n/a
FS[15:51] NOTE: Flight Completed
FS[15:51] FS Aircraft: Soloy MK2 USCG Float
FS[15:51] FS Model: C206
FS[15:51] FS Type: Cessna
FS[15:51] FOB: 164 lbs
FS[15:51] Fuel Used: 91 lbs
FS[15:51] Flight Time: 00:32:55
FS[15:51] Flight Time (Dawn): 00:00:00
FS[15:51] Flight Time (Day): 00:32:55
FS[15:51] Flight Time (Dusk): 00:00:00
FS[15:51] Flight Time (Night): 00:00:00
FS[15:51] Total Landings: 1
FS[15:51] MaxSim Rate: 0x
FS[15:51] Cigar Box - 1.1.4.0
FS[15:51] ----- Flight Closed -----

Route Map